North Bay Airport
CYYB : rendu visible

Aérodrome :











RETROUVEZ-NOUS SUR...

 
LOGIN :

S'inscrire | Disclaimer

   EN    FR    IT 

 









Légende :    VFR   VFR Marginal   IFR   IFR Intensif   IFR Très Intensif
Visi : 
Plafond : 
>= 8 km
>= 3000ft
5 à 8 km
1000 à 3000 ft
1500m à 5 km
500 à 1000 ft
800 à 1500m
200 à 500 ft
< 800m
< 200 ft
Symboles :   Orages  Brouillard  Fortes neiges  Fortes précipitations  Vent > 20 kt






- Altitude de l'aérodrome : 1215 ft
- Code IATA : YYB


CYYB - North Bay

DERNIER METAR :
  • 170900Z AUTO VRB07KT 9SM FEW170 SCT190 M12/M18 A3030 RMK SLP291

METARs EXPIRÉS :
  • 170800Z AUTO 07011KT 070V140 9SM SCT140 BKN170 M11/M17 A3031 RMK SLP294
  • 170700Z AUTO 11007KT 040V170 9SM BKN160 BKN200 M10/M16 A3033 RMK SLP299

TAF TAF CYYB
Valide du 17 à 08h jusqu'au 17 à 20h UTC


170738Z 1708/1720 10008KT P6SM SCT120 BKN160
FM171800 18012KT P6SM SCT120 RMK FCST BASED ON AUTO OBS. NXT FCST BY 171400Z



MET'MAP, la Météo Aéronautique d'un coup d'oeil ! - Copyright ORBIFLY Décembre 2007 - Disclaimer

ORBIFLY MET'MAP TEAM :

Programmation & Développement : Alexandra Zaïnal
Conception & Développement : Baudouin d'Aumeries
Co-Programmation & Développement : Marc-Olivier Méhu
Soutien technique & logistique : Manuel Goepfert

Contact : metmap@orbifly.com




SOURCES & CREDITS :

   NOAA       Earth
Advisory